METAR Data
IDs: Format: Raw Decoded Include TAF

Data at: 0124 UTC 16 Jan 2019

KDRT 160053Z AUTO 11007KT 6SM BR OVC009 09/08 A3025 RMK AO2 SLP240 T00890083
KDRT 152353Z AUTO 11005KT 6SM BR OVC009 09/08 A3024 RMK AO2 SLP236 60004 T00940083 10094 20078 53002
KDRT 152253Z AUTO 12006KT 6SM BR OVC008 09/08 A3023 RMK AO2 SLP234 T00940083
KDRT 152153Z AUTO 15008KT 5SM BR OVC007 09/08 A3023 RMK AO2 SLP233 T00890083
KDRT 152053Z AUTO 14009KT 6SM BR OVC006 09/08 A3023 RMK AO2 RAE29 SLP235 P0000 60004 T00890083 56039
KDRT 151953Z AUTO 14008KT 6SM -RA BR OVC006 08/08 A3026 RMK AO2 SLP244 P0001 T00830078
KDRT 151853Z AUTO 13005KT 4SM -RA BR OVC008 08/08 A3031 RMK AO2 CIG 006V011 SLP260 P0003 T00780078
KDRT 151753Z AUTO 15007KT 5SM -RA BR OVC008 08/07 A3035 RMK AO2 SLP275 P0001 60001 T00780072 10078 20067 50004
KDRT 151653Z AUTO 14005KT 6SM -RA BR OVC009 08/07 A3037 RMK AO2 RAB47 SLP282 P0000 T00780067
KDRT 151553Z AUTO 11005KT 6SM BR OVC008 08/06 A3035 RMK AO2 SLP275 T00780061
KDRT 151453Z AUTO 12006KT 5SM BR OVC008 07/06 A3034 RMK AO2 SLP271 T00720061 51015
KDRT 151353Z AUTO 13005KT 5SM BR OVC007 07/06 A3033 RMK AO2 SLP269 T00670061
KDRT 151331Z AUTO 11004KT 5SM BR OVC009 07/06 A3033 RMK AO2 CIG 007V010 T00720061
KDRT 151316Z AUTO 13004KT 5SM BR OVC010 07/06 A3033 RMK AO2 T00720061
KDRT 151253Z AUTO 12004KT 6SM BR OVC009 07/06 A3032 RMK AO2 SLP264 T00720061
KDRT 151153Z AUTO 12006KT 7SM OVC011 07/06 A3030 RMK AO2 SLP256 T00720056 10089 20072 52000
KDRT 151053Z AUTO 12005KT 8SM OVC014 08/05 A3029 RMK AO2 SLP255 T00780050
KDRT 150953Z AUTO 11007KT 9SM OVC018 08/04 A3030 RMK AO2 SLP257 T00780044
KDRT 150853Z AUTO 12006KT 9SM OVC021 08/04 A3030 RMK AO2 SLP255 T00830044 56013
KDRT 150753Z AUTO 13007KT 10SM OVC019 08/04 A3030 RMK AO2 SLP258 T00830044
KDRT 150653Z AUTO 13009KT 10SM OVC022 08/04 A3031 RMK AO2 SLP261 T00830039
KDRT 150553Z AUTO 12007KT 10SM OVC023 09/04 A3033 RMK AO2 SLP269 T00890039 10094 20089 401060078 58005
KDRT 150453Z AUTO 14007KT 10SM BKN025 OVC034 09/04 A3035 RMK AO2 SLP275 T00890044
KDRT 150353Z AUTO 14007KT 10SM OVC027 09/04 A3034 RMK AO2 SLP272 T00890044
KDRT 150253Z AUTO 10SM BKN028 OVC036 09/04 A3035 RMK AO2 SLP275 T00890044 51009
KDRT 150245Z AUTO 10SM BKN028 OVC036 09/04 A3035 RMK AO2 T00890044
KDRT 150153Z AUTO 13007KT 10SM OVC037 09/04 A3034 RMK AO2 SLP271 T00890044
KDRT 150053Z AUTO 14007KT 10SM OVC039 09/05 A3035 RMK AO2 SLP273 T00940050
KDRT 142353Z AUTO 12009KT 10SM OVC039 09/04 A3032 RMK AO2 SLP265 T00940044 10100 20089 55004
KDRT 142253Z AUTO 13007KT 10SM OVC042 10/04 A3032 RMK AO2 SLP263 T01000044
KDRT 142153Z AUTO 14008KT 10SM OVC042 10/04 A3033 RMK AO2 SLP267 T01000044
KDRT 142053Z AUTO 12009KT 10SM OVC043 10/04 A3034 RMK AO2 SLP269 T01000039 56033
KDRT 141953Z AUTO 14009KT 10SM OVC043 09/04 A3037 RMK AO2 SLP280 T00940039
KDRT 141900Z AUTO 11008KT 10SM BKN033 OVC044 09/04 A3039 RMK AO2 T00940039
KDRT 141853Z AUTO 10008KT 10SM BKN029 BKN034 OVC044 09/04 A3040 RMK AO2 SLP289 T00940039
KDRT 141753Z AUTO 09009KT 10SM BKN031 OVC044 09/04 A3044 RMK AO2 SLP303 T00890039 10094 20078 50005
KDRT 141653Z AUTO 11007KT 10SM OVC041 09/03 A3046 RMK AO2 SLP311 T00890033
KDRT 141553Z AUTO 12009KT 10SM OVC041 08/03 A3045 RMK AO2 SLP307 T00830033
KDRT 141453Z AUTO 12007KT 10SM OVC041 08/03 A3042 RMK AO2 SLP298 T00780033 53012
KDRT 141353Z AUTO 12008KT 10SM OVC041 08/04 A3041 RMK AO2 SLP293 T00780039